Time;durP1;ratioP1;P1;durP2;ratioP2;P2;SDS_P1;SDS_P2;PMS_P1;PMS_P2;Temp;Humidity;BMP_temperature;BMP_pressure;BME280_temperature;BME280_humidity;BME280_pressure;Samples;Min_cycle;Max_cycle;Signal;HPM_P1;HPM_P2
2023/03/24 00:01:58;;;;;;;6.97;2.42;;;;;;;10.15;100.00;99703.91;4998945;28;20120;-92
2023/03/24 00:07:42;;;;;;;5.07;2.03;;;;;;;10.17;100.00;99684.69;5015036;28;20100;-92
2023/03/24 00:10:29;;;;;;;;;;;;;;;;;;;;;
2023/03/24 00:13:26;;;;;;;;;;;;;;;;;;;;;
2023/03/24 00:16:37;;;;;;;;;;;;;;;;;;;;;
2023/03/24 00:39:53;;;;;;;5.28;1.90;;;;;;;10.67;100.00;99669.63;4879576;29;20040;-92
2023/03/24 00:42:23;;;;;;;5.85;2.15;;;;;;;10.69;100.00;99651.25;4867448;29;20620;-93
2023/03/24 00:45:15;;;;;;;5.65;2.22;;;;;;;10.74;100.00;99643.19;4917548;29;20532;-93
2023/03/24 00:48:18;;;;;;;6.28;1.92;;;;;;;10.87;100.00;99652.88;4920584;29;20044;-93
2023/03/24 00:50:52;;;;;;;3.80;2.17;;;;;;;10.88;100.00;99641.78;4922033;29;20075;-93
2023/03/24 00:53:32;;;;;;;2.97;1.55;;;;;;;10.93;100.00;99632.91;4990703;28;20045;-93
2023/03/24 00:56:32;;;;;;;;;;;;;;;;;;;;;
2023/03/24 00:59:08;;;;;;;3.15;1.80;;;;;;;10.87;100.00;99629.28;5015532;28;20032;-93
2023/03/24 01:36:13;;;;;;;5.68;1.85;;;;;;;10.63;100.00;99606.94;4898214;29;20032;-91
2023/03/24 01:42:43;;;;;;;4.80;1.67;;;;;;;10.57;100.00;99585.38;4956433;28;20046;-93
2023/03/24 01:46:28;;;;;;;4.03;2.00;;;;;;;10.60;100.00;99590.31;4984475;28;20073;-92
2023/03/24 01:52:48;;;;;;;3.30;2.20;;;;;;;10.59;100.00;99594.91;4995014;28;20089;-91
2023/03/24 01:55:34;;;;;;;;;;;;;;;;;;;;;
2023/03/24 01:58:21;;;;;;;5.35;2.40;;;;;;;10.55;100.00;99568.53;4994802;28;20026;-92
2023/03/24 02:00:56;;;;;;;;;;;;;;;;;;;;;
2023/03/24 02:07:51;;;;;;;6.82;2.70;;;;;;;10.60;100.00;99579.47;4948580;29;20035;-92
2023/03/24 02:13:46;;;;;;;4.53;2.70;;;;;;;10.64;100.00;99567.88;4934762;28;20098;-92
2023/03/24 02:20:09;;;;;;;5.85;2.83;;;;;;;10.63;100.00;99582.53;4934984;28;20503;-91
2023/03/24 02:36:14;;;;;;;5.53;3.08;;;;;;;10.66;100.00;99590.16;4976480;28;20456;-90
2023/03/24 02:39:11;;;;;;;5.55;3.40;;;;;;;10.69;100.00;99584.25;4971338;28;20554;-90
2023/03/24 02:41:54;;;;;;;6.38;2.67;;;;;;;10.66;100.00;99567.66;4988303;28;20467;-89
2023/03/24 02:44:38;;;;;;;7.10;3.28;;;;;;;10.61;100.00;99548.56;4980075;28;20030;-89
2023/03/24 02:47:51;;;;;;;7.18;3.50;;;;;;;10.73;100.00;99584.56;4983309;28;20045;-89
2023/03/24 02:53:37;;;;;;;5.28;2.97;;;;;;;10.69;100.00;99594.28;5017673;28;20163;-89
2023/03/24 02:56:21;;;;;;;6.35;2.97;;;;;;;10.62;100.00;99583.56;4999226;28;20068;-88
2023/03/24 03:02:27;;;;;;;6.97;3.60;;;;;;;10.62;100.00;99631.59;4968823;28;20402;-89
2023/03/24 03:05:18;;;;;;;4.88;3.25;;;;;;;10.65;100.00;99645.47;5015637;28;20045;-89
2023/03/24 03:07:57;;;;;;;6.20;2.88;;;;;;;10.68;100.00;99646.88;5000134;28;20057;-89
2023/03/24 03:10:32;;;;;;;7.57;2.50;;;;;;;10.43;100.00;99650.78;5015807;28;20117;-88
2023/03/24 03:13:11;;;;;;;3.85;2.40;;;;;;;10.28;100.00;99629.59;4999385;28;20466;-89
2023/03/24 03:15:45;;;;;;;2.50;2.15;;;;;;;10.24;100.00;99638.47;5016394;28;20080;-89
2023/03/24 03:18:22;;;;;;;5.55;2.30;;;;;;;10.10;100.00;99663.16;5016438;28;20473;-89
2023/03/24 03:21:03;;;;;;;3.35;2.17;;;;;;;10.01;100.00;99668.13;4998976;28;20088;-89
2023/03/24 03:23:38;;;;;;;3.33;1.38;;;;;;;9.92;100.00;99668.75;4999959;28;20032;-89
2023/03/24 03:26:15;;;;;;;2.75;1.20;;;;;;;9.62;100.00;99664.34;5000017;28;20466;-89
2023/03/24 03:28:48;;;;;;;2.72;0.80;;;;;;;9.35;100.00;99672.16;4999211;28;20022;-89
2023/03/24 03:31:33;;;;;;;2.83;0.90;;;;;;;9.17;100.00;99698.25;5015738;28;20056;-90
2023/03/24 03:34:08;;;;;;;3.88;0.60;;;;;;;9.05;100.00;99694.72;5016327;28;20052;-89
2023/03/24 03:36:59;;;;;;;;;;;;;;;;;;;;;
2023/03/24 03:39:33;;;;;;;4.13;0.77;;;;;;;8.98;100.00;99737.31;5000287;28;20040;-89
2023/03/24 03:42:05;;;;;;;3.03;0.90;;;;;;;8.99;100.00;99730.81;4998505;28;20036;-90
2023/03/24 03:51:40;;;;;;;7.53;3.03;;;;;;;9.01;100.00;99744.97;5013552;28;20117;-89
2023/03/24 03:57:49;;;;;;;;;;;;;;;;;;;;;
2023/03/24 04:14:36;;;;;;;4.95;1.80;;;;;;;8.71;100.00;99794.47;4956072;28;20104;-90
2023/03/24 04:17:27;;;;;;;4.50;1.70;;;;;;;8.69;100.00;99807.41;4959020;28;20035;-90
2023/03/24 04:19:59;;;;;;;8.23;1.60;;;;;;;8.66;100.00;99821.38;4998251;28;20378;-89
2023/03/24 04:22:37;;;;;;;6.75;1.42;;;;;;;8.61;100.00;99835.59;4995891;28;20038;-90
2023/03/24 04:26:05;;;;;;;;;;;;;;;;;;;;;
2023/03/24 04:29:16;;;;;;;9.95;1.40;;;;;;;8.48;100.00;99809.53;4995326;28;20504;-90
2023/03/24 04:32:05;;;;;;;6.68;1.30;;;;;;;8.46;100.00;99811.66;4998461;28;20040;-89
2023/03/24 04:34:53;;;;;;;11.38;1.33;;;;;;;8.48;100.00;99828.47;5000269;28;20136;-90
2023/03/24 04:37:36;;;;;;;8.90;1.42;;;;;;;8.46;100.00;99843.25;5000951;28;20025;-90
2023/03/24 04:40:07;;;;;;;7.07;1.45;;;;;;;8.48;100.00;99833.88;4984886;28;20029;-90
2023/03/24 04:43:03;;;;;;;7.82;1.50;;;;;;;8.44;100.00;99827.25;4999563;28;20038;-90
2023/03/24 04:45:34;;;;;;;5.90;1.02;;;;;;;8.36;100.00;99843.75;5014964;28;20034;-90
2023/03/24 04:51:13;;;;;;;8.93;1.55;;;;;;;8.34;100.00;99860.22;5015188;28;20045;-89
2023/03/24 04:53:56;;;;;;;4.78;1.45;;;;;;;8.30;100.00;99863.56;4996713;28;20045;-90
2023/03/24 04:57:04;;;;;;;9.38;1.98;;;;;;;8.23;100.00;99853.66;4996778;28;20025;-90
2023/03/24 05:03:15;;;;;;;13.13;2.50;;;;;;;8.17;100.00;99864.53;5014522;28;20501;-90
2023/03/24 05:05:51;;;;;;;9.73;2.40;;;;;;;8.22;100.00;99852.00;4997874;28;20367;-90
2023/03/24 05:08:34;;;;;;;;;;;;;;;;;;;;;
2023/03/24 05:11:16;;;;;;;;;;;;;;;;;;;;;
2023/03/24 05:13:43;;;;;;;4.38;1.48;;;;;;;8.13;100.00;99866.03;5016172;28;20034;-91
2023/03/24 05:16:25;;;;;;;11.15;2.35;;;;;;;8.27;100.00;99878.38;4996660;28;20080;-90
2023/03/24 05:22:13;;;;;;;;;;;;;;;;;;;;;
2023/03/24 05:24:45;;;;;;;10.35;1.80;;;;;;;8.08;100.00;99886.44;4999295;28;20030;-90
2023/03/24 05:27:37;;;;;;;11.60;2.10;;;;;;;8.13;100.00;99882.25;4981853;28;20061;-90
2023/03/24 05:30:19;;;;;;;;;;;;;;;;;;;;;
2023/03/24 05:36:36;;;;;;;8.57;1.55;;;;;;;8.36;100.00;99903.22;4956139;29;20130;-91
2023/03/24 05:42:56;;;;;;;11.75;1.98;;;;;;;8.43;100.00;99922.91;4935104;29;20464;-90
2023/03/24 05:45:30;;;;;;;7.07;1.30;;;;;;;8.42;100.00;99916.66;4918423;29;20079;-90
2023/03/24 05:48:52;;;;;;;8.80;1.35;;;;;;;8.49;100.00;99930.16;4916846;29;20051;-91
2023/03/24 05:52:03;;;;;;;;;;;;;;;;;;;;;
2023/03/24 05:54:34;;;;;;;11.88;1.80;;;;;;;8.40;100.00;99926.88;4947146;29;20087;-91
2023/03/24 05:57:41;;;;;;;11.85;2.10;;;;;;;8.41;100.00;99923.13;4969906;28;20058;-91
2023/03/24 06:03:04;;;;;;;12.82;1.92;;;;;;;8.50;100.00;99920.97;5014083;28;20489;-91
2023/03/24 06:05:43;;;;;;;9.10;1.63;;;;;;;8.47;100.00;99917.91;5014115;28;20030;-90
2023/03/24 06:08:34;;;;;;;11.43;2.10;;;;;;;8.49;100.00;99922.03;5000385;28;20025;-90
2023/03/24 06:11:52;;;;;;;11.18;1.30;;;;;;;8.51;100.00;99909.09;4952612;29;20047;-91
2023/03/24 06:14:19;;;;;;;14.40;1.92;;;;;;;8.57;100.00;99937.13;4999481;28;20038;-91
2023/03/24 06:17:33;;;;;;;13.70;2.05;;;;;;;8.56;100.00;99930.06;4946822;28;20066;-89
2023/03/24 06:20:11;;;;;;;11.05;1.80;;;;;;;8.59;100.00;99935.88;4996138;28;20505;-92
2023/03/24 06:22:47;;;;;;;;;;;;;;;;;;;;;
2023/03/24 06:25:29;;;;;;;;;;;;;;;;;;;;;
2023/03/24 06:28:24;;;;;;;;;;;;;;;;;;;;;
2023/03/24 06:31:13;;;;;;;8.02;1.42;;;;;;;8.78;100.00;99955.63;5018014;28;20032;-94
2023/03/24 06:33:41;;;;;;;10.68;1.48;;;;;;;8.85;100.00;99952.84;4984677;28;20030;-91
2023/03/24 06:36:25;;;;;;;;;;;;;;;;;;;;;
2023/03/24 06:38:53;;;;;;;11.65;1.60;;;;;;;8.77;100.00;99959.38;5017691;28;20350;-91
2023/03/24 06:41:22;;;;;;;9.35;1.40;;;;;;;8.78;100.00;99963.75;4983792;28;20451;-91
2023/03/24 06:44:15;;;;;;;18.85;1.92;;;;;;;8.98;100.00;99981.63;5000136;28;20032;-89
2023/03/24 06:46:46;;;;;;;10.10;1.58;;;;;;;8.98;100.00;99965.38;4975905;28;20092;-90
2023/03/24 06:49:26;;;;;;;12.05;1.83;;;;;;;9.00;100.00;99974.09;4999481;28;20129;-89
2023/03/24 06:52:07;;;;;;;11.55;1.42;;;;;;;9.04;100.00;99969.06;4999714;28;20042;-90
2023/03/24 06:54:35;;;;;;;13.65;2.28;;;;;;;9.00;100.00;99971.38;4979984;28;20042;-90
2023/03/24 06:57:17;;;;;;;12.63;1.50;;;;;;;9.01;100.00;99973.03;4995368;28;20467;-90
2023/03/24 06:59:48;;;;;;;14.90;2.72;;;;;;;9.03;100.00;99965.50;4964726;28;20058;-89
2023/03/24 07:02:14;;;;;;;9.07;1.40;;;;;;;9.07;100.00;99966.72;4979783;28;20038;-90
2023/03/24 07:05:13;;;;;;;;;;;;;;;;;;;;;
2023/03/24 07:07:58;;;;;;;;;;;;;;;;;;;;;
2023/03/24 07:10:39;;;;;;;14.25;1.40;;;;;;;9.15;100.00;99970.19;4997589;28;20030;-89
2023/03/24 07:13:10;;;;;;;10.30;1.15;;;;;;;9.19;100.00;99958.66;4964292;28;20034;-90
2023/03/24 07:15:36;;;;;;;10.02;1.90;;;;;;;9.27;100.00;99980.00;4994973;28;20034;-90
2023/03/24 07:18:12;;;;;;;10.07;1.00;;;;;;;9.36;100.00;99977.81;4995525;28;20466;-90
2023/03/24 07:20:50;;;;;;;;;;;;;;;;;;;;;
2023/03/24 07:23:20;;;;;;;14.68;1.48;;;;;;;9.37;100.00;99982.16;4997282;28;20033;-89
2023/03/24 07:25:48;;;;;;;14.77;1.70;;;;;;;9.43;100.00;99980.41;4978677;28;20029;-89
2023/03/24 07:28:34;;;;;;;14.37;1.90;;;;;;;9.45;100.00;99978.31;4978734;28;20042;-89
2023/03/24 07:31:17;;;;;;;11.85;1.60;;;;;;;9.54;100.00;99986.97;4963094;28;20042;-89
2023/03/24 07:33:45;;;;;;;13.77;1.63;;;;;;;9.55;100.00;100002.97;4978963;28;20034;-89
2023/03/24 07:36:24;;;;;;;6.97;1.35;;;;;;;9.66;100.00;99999.47;4978660;28;20092;-90
2023/03/24 07:39:23;;;;;;;12.55;1.40;;;;;;;9.75;100.00;100015.41;4977895;28;20046;-90
2023/03/24 07:41:56;;;;;;;9.13;1.40;;;;;;;9.74;100.00;100014.56;4965054;28;20255;-89
2023/03/24 07:44:22;;;;;;;12.50;1.85;;;;;;;9.71;100.00;100001.47;4963504;28;20122;-90
2023/03/24 07:46:50;;;;;;;10.90;1.88;;;;;;;9.71;100.00;100022.34;4979102;28;20058;-89
2023/03/24 07:49:18;;;;;;;14.32;1.77;;;;;;;9.77;100.00;100030.38;4979623;28;20530;-89
2023/03/24 07:51:45;;;;;;;11.25;1.80;;;;;;;9.80;100.00;100026.38;4978577;28;20121;-89
2023/03/24 07:54:13;;;;;;;16.83;1.92;;;;;;;10.00;100.00;100023.38;4994851;28;20486;-90
2023/03/24 07:56:42;;;;;;;14.13;2.22;;;;;;;10.14;100.00;100014.00;4997986;28;20386;-89
2023/03/24 07:59:40;;;;;;;;;;;;;;;;;;;;;
2023/03/24 08:02:30;;;;;;;14.73;1.33;;;;;;;10.46;100.00;100037.28;5015982;28;20036;-89
2023/03/24 08:05:00;;;;;;;8.13;1.58;;;;;;;10.59;98.84;100033.53;4998059;28;20390;-89
2023/03/24 08:07:31;;;;;;;10.38;1.40;;;;;;;10.77;96.91;100046.94;4998509;28;20033;-89
2023/03/24 08:10:02;;;;;;;10.82;1.65;;;;;;;10.87;96.40;100047.19;4982767;28;20034;-90
2023/03/24 08:12:43;;;;;;;;;;;;;;;;;;;;;
2023/03/24 08:15:20;;;;;;;9.15;1.73;;;;;;;10.97;94.55;100038.47;4999416;28;20035;-90
2023/03/24 08:17:59;;;;;;;;;;;;;;;;;;;;;
2023/03/24 08:20:34;;;;;;;11.30;1.85;;;;;;;10.73;95.80;100032.19;5015629;28;20048;-90
2023/03/24 08:26:05;;;;;;;13.85;1.70;;;;;;;10.92;93.26;100051.09;5001828;28;20437;-89
2023/03/24 08:28:54;;;;;;;;;;;;;;;;;;;;;
2023/03/24 08:31:30;;;;;;;11.70;1.40;;;;;;;10.95;90.69;100037.84;5015413;28;20040;-90
2023/03/24 08:34:20;;;;;;;;;;;;;;;;;;;;;
2023/03/24 08:36:49;;;;;;;12.07;1.75;;;;;;;11.16;90.04;100089.88;5016121;28;20034;-90
2023/03/24 08:39:38;;;;;;;12.57;3.10;;;;;;;11.30;90.43;100066.03;4981841;28;20040;-90
2023/03/24 08:42:23;;;;;;;8.73;1.38;;;;;;;11.39;89.33;100057.25;4999888;28;20438;-90
2023/03/24 08:44:53;;;;;;;9.38;1.30;;;;;;;11.47;89.87;100061.50;4997661;28;20553;-90
2023/03/24 08:47:37;;;;;;;11.48;2.13;;;;;;;11.62;86.56;100055.56;4997761;28;20112;-90
2023/03/24 08:50:08;;;;;;;11.25;2.38;;;;;;;11.61;86.06;100059.31;4998287;28;20034;-90
2023/03/24 08:52:46;;;;;;;;;;;;;;;;;;;;;
2023/03/24 08:55:14;;;;;;;12.13;2.00;;;;;;;11.37;86.61;100077.59;5015162;28;20060;-90
2023/03/24 08:57:53;;;;;;;8.60;1.55;;;;;;;11.24;87.23;100074.06;5014555;28;20030;-89
2023/03/24 09:00:23;;;;;;;9.00;1.67;;;;;;;11.24;87.74;100075.94;5013244;28;20038;-90
2023/03/24 09:03:16;;;;;;;12.23;1.50;;;;;;;11.29;87.67;100083.38;5014502;28;20034;-91
2023/03/24 09:05:45;;;;;;;12.60;1.95;;;;;;;11.31;86.76;100086.66;4990962;28;20042;-90
2023/03/24 09:08:24;;;;;;;11.73;1.70;;;;;;;11.36;87.26;100076.75;5014452;28;20034;-90
2023/03/24 09:10:52;;;;;;;14.57;1.85;;;;;;;11.33;87.00;100069.09;4996813;28;20096;-90
2023/03/24 09:13:19;;;;;;;10.43;1.45;;;;;;;11.40;86.38;100072.50;4996785;28;20032;-91
2023/03/24 09:15:59;;;;;;;14.55;1.30;;;;;;;11.39;85.76;100075.44;4980219;28;20130;-90
2023/03/24 09:18:41;;;;;;;8.68;1.48;;;;;;;11.55;84.96;100074.69;4996873;28;20481;-90
2023/03/24 09:21:25;;;;;;;;;;;;;;;;;;;;;
2023/03/24 09:23:56;;;;;;;8.75;1.70;;;;;;;11.56;84.87;100108.13;5014194;28;20022;-90
2023/03/24 09:26:34;;;;;;;13.43;2.17;;;;;;;11.32;87.89;100091.03;4980726;28;20466;-90
2023/03/24 09:29:02;;;;;;;10.15;1.63;;;;;;;11.34;87.27;100070.75;4995844;28;20089;-91
2023/03/24 09:31:36;;;;;;;13.30;2.00;;;;;;;11.34;87.44;100111.47;5013627;28;20034;-90
2023/03/24 09:34:16;;;;;;;7.72;1.40;;;;;;;11.47;87.10;100088.66;5012896;28;20478;-91
2023/03/24 09:37:20;;;;;;;;;;;;;;;;;;;;;
2023/03/24 09:39:49;;;;;;;10.68;1.42;;;;;;;11.99;85.79;100097.84;5012106;28;20038;-91
2023/03/24 09:42:25;;;;;;;10.13;1.67;;;;;;;11.99;84.73;100135.91;4994951;28;20091;-91
2023/03/24 09:45:14;;;;;;;10.48;1.52;;;;;;;11.79;86.03;100128.16;4994713;28;20040;-90
2023/03/24 09:47:55;;;;;;;6.20;1.50;;;;;;;11.71;86.23;100107.63;4985984;28;20539;-91
2023/03/24 09:50:40;;;;;;;10.45;1.90;;;;;;;11.56;87.24;100119.00;4994819;28;20038;-90
2023/03/24 09:53:39;;;;;;;9.10;1.75;;;;;;;11.61;86.94;100101.97;4994097;28;20061;-91
2023/03/24 09:56:31;;;;;;;;;;;;;;;;;;;;;
2023/03/24 09:59:20;;;;;;;9.13;1.67;;;;;;;11.90;86.12;100122.69;5013482;28;20033;-91
2023/03/24 10:01:59;;;;;;;8.20;1.27;;;;;;;11.84;86.12;100101.91;4996392;28;20036;-90
2023/03/24 10:04:30;;;;;;;7.72;1.60;;;;;;;11.87;85.28;100119.59;4981182;28;20056;-91
2023/03/24 10:07:25;;;;;;;8.52;1.75;;;;;;;11.75;85.33;100101.47;4991194;28;20048;-93
2023/03/24 10:10:05;;;;;;;8.05;1.40;;;;;;;11.84;85.01;100114.66;5013846;28;20033;-92
2023/03/24 10:13:05;;;;;;;11.43;1.70;;;;;;;12.01;84.35;100103.88;4981551;28;20034;-92
2023/03/24 10:15:49;;;;;;;7.25;0.90;;;;;;;12.24;82.19;100125.53;4988923;28;20125;-92
2023/03/24 10:18:32;;;;;;;6.82;1.00;;;;;;;12.30;80.51;100134.59;4996491;28;20034;-92
2023/03/24 10:21:26;;;;;;;9.88;1.80;;;;;;;12.23;81.01;100125.75;5009237;28;20034;-92
2023/03/24 10:24:41;;;;;;;6.32;1.10;;;;;;;12.25;80.24;100132.63;4983178;28;20038;-92
2023/03/24 10:27:29;;;;;;;7.38;1.13;;;;;;;12.37;78.04;100127.13;4976556;28;20402;-92
2023/03/24 10:30:19;;;;;;;9.30;1.40;;;;;;;12.63;76.84;100105.78;4982932;28;20093;-92
2023/03/24 10:33:05;;;;;;;;;;;;;;;;;;;;;
2023/03/24 10:35:47;;;;;;;12.95;1.30;;;;;;;13.06;72.56;100114.34;4994625;28;20035;-91
2023/03/24 10:38:36;;;;;;;9.82;1.40;;;;;;;13.35;73.73;100097.88;4994663;28;20109;-91
2023/03/24 10:41:05;;;;;;;6.45;1.30;;;;;;;13.42;71.10;100109.41;4995081;28;20422;-91
2023/03/24 10:44:00;;;;;;;10.60;1.50;;;;;;;13.30;70.09;100121.22;4979833;28;20486;-91
2023/03/24 10:46:46;;;;;;;7.90;1.50;;;;;;;13.13;71.30;100118.53;4979871;28;20054;-91
2023/03/24 10:49:18;;;;;;;7.53;1.70;;;;;;;13.15;71.85;100110.94;4962946;28;20035;-91
2023/03/24 10:52:14;;;;;;;8.63;1.33;;;;;;;13.20;71.18;100120.25;4993809;28;20088;-92
2023/03/24 10:54:58;;;;;;;12.52;1.90;;;;;;;12.93;72.73;100100.00;4980028;28;20148;-91
2023/03/24 10:57:25;;;;;;;9.30;1.20;;;;;;;12.84;71.93;100109.63;4980021;28;20045;-93
2023/03/24 11:00:03;;;;;;;7.88;1.55;;;;;;;13.05;72.31;100118.13;4979990;28;20109;-93
2023/03/24 11:02:30;;;;;;;8.30;1.40;;;;;;;13.21;72.97;100119.97;4980025;28;20042;-91
2023/03/24 11:05:04;;;;;;;7.15;1.13;;;;;;;13.26;70.32;100122.78;4989956;28;20049;-92
2023/03/24 11:07:39;;;;;;;6.22;1.45;;;;;;;13.35;69.74;100117.78;4979564;28;20037;-91
2023/03/24 11:10:22;;;;;;;6.45;1.30;;;;;;;13.64;70.88;100131.22;4979694;28;20089;-92
2023/03/24 11:12:54;;;;;;;8.85;1.77;;;;;;;13.67;69.60;100109.75;4996369;28;20030;-92
2023/03/24 11:15:50;;;;;;;9.40;1.65;;;;;;;13.47;71.07;100099.41;5006093;28;20052;-91
2023/03/24 11:18:16;;;;;;;9.90;1.27;;;;;;;13.61;68.14;100094.41;4999582;28;20029;-92
2023/03/24 11:21:17;;;;;;;8.30;1.88;;;;;;;13.73;68.90;100117.97;5016483;28;20026;-92
2023/03/24 11:23:47;;;;;;;7.50;1.80;;;;;;;13.88;67.99;100111.88;4984732;28;20034;-91
2023/03/24 11:26:21;;;;;;;7.70;2.15;;;;;;;13.92;68.76;100110.28;4998861;28;20036;-90
2023/03/24 11:28:53;;;;;;;6.65;1.50;;;;;;;13.83;67.39;100088.09;4998567;28;20159;-91
2023/03/24 11:32:02;;;;;;;7.53;1.20;;;;;;;13.65;68.54;100089.25;4996942;28;20030;-91
2023/03/24 11:34:57;;;;;;;8.27;1.48;;;;;;;13.10;71.70;100102.69;4996928;28;20046;-91
2023/03/24 11:37:36;;;;;;;5.93;1.57;;;;;;;12.14;78.98;100105.47;5010545;28;20394;-92
2023/03/24 11:40:13;;;;;;;8.20;1.58;;;;;;;11.42;82.95;100115.72;5002685;28;20110;-92
2023/03/24 11:46:12;;;;;;;8.90;1.98;;;;;;;10.49;93.08;100127.13;5016227;28;20038;-91
2023/03/24 11:48:58;;;;;;;7.70;1.88;;;;;;;9.91;99.74;100142.09;5015596;28;20117;-92
2023/03/24 11:51:35;;;;;;;7.18;1.65;;;;;;;9.55;100.00;100176.31;5012270;28;20501;-87
2023/03/24 11:54:24;;;;;;;;;;;;;;;;;;;;;
2023/03/24 11:56:57;;;;;;;6.72;1.00;;;;;;;8.86;100.00;100172.75;5015700;28;20052;-88
2023/03/24 11:59:32;;;;;;;7.57;1.35;;;;;;;8.68;100.00;100178.94;4997920;28;20034;-88
2023/03/24 12:02:10;;;;;;;11.55;1.92;;;;;;;8.41;100.00;100188.03;4997467;28;20042;-87
2023/03/24 12:04:54;;;;;;;10.98;1.73;;;;;;;8.44;100.00;100203.00;4996635;28;20474;-89
2023/03/24 12:07:55;;;;;;;11.32;1.90;;;;;;;8.42;100.00;100173.47;4998034;28;20037;-89
2023/03/24 12:10:43;;;;;;;4.32;1.30;;;;;;;8.27;100.00;100175.66;4997968;28;20034;-88
2023/03/24 12:13:15;;;;;;;4.78;0.73;;;;;;;8.24;100.00;100201.22;5015507;28;20492;-89
2023/03/24 12:16:08;;;;;;;3.10;0.75;;;;;;;8.15;100.00;100201.69;4986614;28;20065;-89
2023/03/24 12:18:54;;;;;;;2.80;0.50;;;;;;;8.08;100.00;100190.91;4996780;28;20129;-89
2023/03/24 12:21:44;;;;;;;4.20;0.95;;;;;;;8.08;100.00;100182.81;4997499;28;20536;-89
2023/03/24 12:24:13;;;;;;;3.78;0.95;;;;;;;8.31;100.00;100176.88;4997618;28;20041;-87
2023/03/24 12:26:39;;;;;;;2.75;0.40;;;;;;;8.28;100.00;100160.25;4997332;28;20034;-90
2023/03/24 12:29:32;;;;;;;4.50;0.50;;;;;;;8.25;100.00;100175.88;4997500;28;20064;-89
2023/03/24 12:32:19;;;;;;;3.58;0.45;;;;;;;8.22;100.00;100176.31;5016035;28;20036;-90
2023/03/24 12:34:57;;;;;;;5.20;0.50;;;;;;;8.24;100.00;100170.69;4986223;28;20030;-90
2023/03/24 12:37:41;;;;;;;2.83;0.50;;;;;;;8.34;100.00;100172.88;4995252;28;20038;-89
2023/03/24 12:40:21;;;;;;;4.40;0.85;;;;;;;8.58;100.00;100174.03;4997335;28;20481;-90
2023/03/24 12:42:51;;;;;;;6.10;0.88;;;;;;;9.01;100.00;100158.94;4986760;28;20100;-91
2023/03/24 12:45:30;;;;;;;5.72;0.82;;;;;;;9.45;100.00;100176.00;5007376;28;20030;-90
2023/03/24 12:48:16;;;;;;;4.40;0.60;;;;;;;9.56;100.00;100169.81;5004331;28;20029;-90
2023/03/24 12:51:10;;;;;;;3.78;0.70;;;;;;;9.81;100.00;100160.78;4997152;28;20038;-91
2023/03/24 12:54:06;;;;;;;6.78;1.27;;;;;;;10.43;100.00;100154.38;4977309;28;20146;-90
2023/03/24 12:56:39;;;;;;;13.65;1.30;;;;;;;12.19;100.00;100151.78;4993750;28;20054;-90
2023/03/24 12:59:27;;;;;;;2.08;0.60;;;;;;;14.80;100.00;100140.09;4977959;28;20034;-91
2023/03/24 13:02:29;;;;;;;2.72;0.60;;;;;;;17.30;89.85;100140.34;4979038;28;20037;-90
2023/03/24 13:05:22;;;;;;;2.15;0.60;;;;;;;18.30;75.86;100121.25;4987819;28;20050;-92
2023/03/24 13:08:16;;;;;;;6.32;0.90;;;;;;;18.28;72.89;100114.41;5000408;28;20060;-92
2023/03/24 13:11:11;;;;;;;2.55;0.52;;;;;;;17.12;71.84;100119.78;4997697;28;20030;-92
2023/03/24 13:14:00;;;;;;;3.53;0.90;;;;;;;17.51;69.26;100118.34;5014670;28;20092;-92
2023/03/24 13:16:36;;;;;;;3.25;0.80;;;;;;;16.71;69.72;100121.72;4996754;28;20414;-92
2023/03/24 13:19:16;;;;;;;3.38;0.85;;;;;;;16.33;72.62;100129.34;4997079;28;20211;-92
2023/03/24 13:22:02;;;;;;;3.75;0.88;;;;;;;15.85;73.03;100126.78;4996581;28;20033;-92
2023/03/24 13:24:33;;;;;;;4.50;1.45;;;;;;;15.15;76.56;100116.03;4996940;28;20030;-92
2023/03/24 13:27:19;;;;;;;5.10;1.03;;;;;;;16.74;73.83;100124.75;4996768;28;20444;-92
2023/03/24 13:29:48;;;;;;;8.20;1.35;;;;;;;16.04;73.11;100136.13;4997114;28;20503;-92
2023/03/24 13:32:23;;;;;;;5.18;1.00;;;;;;;15.35;74.75;100110.66;4996674;28;20188;-92
2023/03/24 13:35:16;;;;;;;4.20;1.30;;;;;;;17.30;70.73;100101.13;4997315;28;20029;-92
2023/03/24 13:38:17;;;;;;;6.00;1.20;;;;;;;19.70;61.31;100118.06;4996208;28;20053;-92
2023/03/24 13:40:53;;;;;;;3.27;1.33;;;;;;;20.04;60.36;100103.31;5013369;28;20029;-92
2023/03/24 13:43:54;;;;;;;;;;;;;;;;;;;;;
2023/03/24 13:46:35;;;;;;;;;;;;;;;;;;;;;
2023/03/24 13:49:11;;;;;;;5.45;1.50;;;;;;;16.80;64.84;100099.00;5015035;28;20496;-92
2023/03/24 13:52:06;;;;;;;5.70;1.45;;;;;;;15.14;71.59;100098.81;4996407;28;20034;-91
2023/03/24 13:54:37;;;;;;;8.43;1.50;;;;;;;14.89;75.17;100091.25;4996166;28;20486;-91
2023/03/24 13:57:29;;;;;;;6.53;1.70;;;;;;;15.21;75.75;100088.47;4979267;28;20048;-92
2023/03/24 14:06:58;;;;;;;;;;;;;;;;;;;;;
2023/03/24 14:13:15;;;;;;;7.07;1.10;;;;;;;10.95;100.00;100081.28;4899973;29;20076;-91
2023/03/24 14:15:50;;;;;;;7.13;1.27;;;;;;;10.60;100.00;100084.81;4969021;28;20197;-90
2023/03/24 14:18:35;;;;;;;6.47;1.58;;;;;;;10.67;100.00;100104.53;4972288;28;20129;-91
2023/03/24 14:21:06;;;;;;;8.68;1.40;;;;;;;10.63;100.00;100091.66;4972443;28;20474;-90
2023/03/24 14:24:16;;;;;;;6.00;1.45;;;;;;;11.44;100.00;100110.03;4956326;28;20031;-90
2023/03/24 14:27:32;;;;;;;;;;;;;;;;;;;;;
2023/03/24 14:30:39;;;;;;;;;;;;;;;;;;;;;
2023/03/24 14:33:43;;;;;;;;;;;;;;;;;;;;;
2023/03/24 14:36:25;;;;;;;7.93;1.27;;;;;;;11.98;100.00;100094.31;4981756;28;20048;-90
2023/03/24 14:42:41;;;;;;;4.82;1.00;;;;;;;11.03;100.00;100109.97;5016620;28;20494;-90
2023/03/24 14:45:46;;;;;;;5.00;1.05;;;;;;;10.94;100.00;100101.34;5018745;28;20041;-91
2023/03/24 14:48:41;;;;;;;5.63;0.93;;;;;;;10.87;100.00;100087.91;4999527;28;20060;-89
2023/03/24 14:51:47;;;;;;;;;;;;;;;;;;;;;
2023/03/24 14:54:48;;;;;;;;;;;;;;;;;;;;;
2023/03/24 14:57:30;;;;;;;5.05;1.35;;;;;;;10.53;100.00;100084.09;4985589;28;20045;-91
2023/03/24 15:00:17;;;;;;;6.07;1.20;;;;;;;10.63;100.00;100088.94;4999954;28;20025;-90
2023/03/24 15:02:51;;;;;;;4.88;1.15;;;;;;;10.61;100.00;100067.47;4999670;28;20096;-91
2023/03/24 15:05:25;;;;;;;7.65;1.38;;;;;;;10.74;100.00;100098.97;4999705;28;20030;-90
2023/03/24 15:08:07;;;;;;;9.32;1.58;;;;;;;10.83;100.00;100094.03;5000617;28;20053;-91
2023/03/24 15:10:42;;;;;;;5.28;1.42;;;;;;;10.78;100.00;100089.31;5000288;28;20362;-91
2023/03/24 15:13:31;;;;;;;5.57;1.73;;;;;;;10.86;100.00;100094.38;5000144;28;20034;-90
2023/03/24 15:16:04;;;;;;;9.07;2.10;;;;;;;10.93;100.00;100074.47;5000300;28;20117;-90
2023/03/24 15:18:55;;;;;;;12.35;2.17;;;;;;;10.99;100.00;100085.19;4984036;28;20049;-90
2023/03/24 15:21:32;;;;;;;7.68;1.58;;;;;;;10.93;100.00;100075.28;4998787;28;20045;-90
2023/03/24 15:24:31;;;;;;;;;;;;;;;;;;;;;
2023/03/24 15:27:11;;;;;;;6.32;1.27;;;;;;;12.02;100.00;100084.59;5006433;28;20424;-90
2023/03/24 15:29:46;;;;;;;8.85;1.10;;;;;;;11.35;100.00;100066.13;4998513;28;20048;-89
2023/03/24 15:32:23;;;;;;;8.20;1.30;;;;;;;10.77;100.00;100071.38;5015372;28;20034;-89
2023/03/24 15:35:04;;;;;;;4.40;1.17;;;;;;;10.79;100.00;100071.97;4998546;28;20022;-90
2023/03/24 15:38:20;;;;;;;5.78;1.33;;;;;;;12.01;100.00;100057.66;4998981;28;20555;-89
2023/03/24 15:41:20;;;;;;;6.53;0.70;;;;;;;13.68;100.00;100056.03;4998301;28;20447;-90
2023/03/24 15:43:55;;;;;;;4.57;0.95;;;;;;;15.06;89.21;100044.69;4998575;28;20042;-90
2023/03/24 15:46:45;;;;;;;6.78;1.30;;;;;;;15.06;89.27;100050.94;4998941;28;20045;-90
2023/03/24 15:49:55;;;;;;;5.53;1.20;;;;;;;15.33;89.25;100050.00;4998162;28;20061;-90
2023/03/24 15:52:40;;;;;;;3.63;0.80;;;;;;;14.84;86.96;100050.28;4991452;28;20038;-90
2023/03/24 15:55:31;;;;;;;6.72;1.00;;;;;;;14.51;86.17;100054.91;4998606;28;20037;-91
2023/03/24 15:58:00;;;;;;;7.10;1.30;;;;;;;15.05;82.21;100041.09;4998242;28;20022;-90
2023/03/24 16:00:41;;;;;;;3.17;0.90;;;;;;;14.80;84.12;100033.59;4982120;28;20510;-91
2023/03/24 16:16:50;;;;;;;;;;;;;;;;;;;;;
2023/03/24 16:19:16;;;;;;;2.67;0.90;;;;;;;17.35;65.08;100027.91;4917014;29;20035;-93
2023/03/24 16:21:46;;;;;;;2.60;0.85;;;;;;;17.56;63.64;100066.19;4900655;29;20135;-91
2023/03/24 16:24:17;;;;;;;4.85;0.88;;;;;;;17.01;63.13;100011.31;4900992;29;20032;-91
2023/03/24 16:26:51;;;;;;;6.53;1.23;;;;;;;16.75;63.99;100008.59;4946095;28;20049;-92
2023/03/24 16:29:29;;;;;;;;;;;;;;;;;;;;;
2023/03/24 16:31:56;;;;;;;4.40;0.90;;;;;;;15.66;67.88;100020.56;5015679;28;20060;-92